createdAt,value
2019-03-12T00:01:16.740Z,4.20
2019-03-12T00:03:46.004Z,4.20
2019-03-12T00:06:15.280Z,4.20
2019-03-12T00:08:44.825Z,4.20
2019-03-12T00:13:51.290Z,4.20
2019-03-12T00:16:20.647Z,4.20
2019-03-12T00:18:50.097Z,4.10
2019-03-12T00:21:19.437Z,4.20
2019-03-12T00:23:48.612Z,4.10
2019-03-12T00:26:17.745Z,4.10
2019-03-12T00:28:46.954Z,4.10
2019-03-12T00:31:16.311Z,4.10
2019-03-12T00:33:45.448Z,4.10
2019-03-12T00:36:14.775Z,4.10
2019-03-12T00:38:44.078Z,4.10
2019-03-12T00:41:13.535Z,4.10
2019-03-12T00:43:42.975Z,4.10
2019-03-12T00:46:12.199Z,4.10
2019-03-12T00:48:41.496Z,4.10
2019-03-12T00:51:10.622Z,4.10
2019-03-12T00:53:40.039Z,4.20
2019-03-12T01:01:21.559Z,4.20
2019-03-12T01:03:50.787Z,4.10
2019-03-12T01:06:42.260Z,4.10
2019-03-12T01:09:21.274Z,4.10
2019-03-12T01:11:51.059Z,4.20
2019-03-12T01:15:03.732Z,4.10
2019-03-12T01:17:34.298Z,4.10
2019-03-12T01:20:05.774Z,4.10
2019-03-12T01:22:36.039Z,4.10
2019-03-12T01:25:06.348Z,4.10
2019-03-12T01:27:35.841Z,4.10
2019-03-12T01:30:06.956Z,4.00
2019-03-12T01:32:36.448Z,4.10
2019-03-12T01:35:06.138Z,4.00
2019-03-12T01:37:35.325Z,4.00
2019-03-12T01:40:04.900Z,4.00
2019-03-12T01:42:34.240Z,4.00
2019-03-12T01:45:03.630Z,3.90
2019-03-12T01:47:32.837Z,3.90
2019-03-12T01:50:02.083Z,3.90
2019-03-12T01:52:31.221Z,3.80
2019-03-12T01:55:00.649Z,3.80
2019-03-12T01:57:30.326Z,3.80
2019-03-12T01:59:59.744Z,3.80
2019-03-12T02:02:29.089Z,3.80
2019-03-12T02:07:35.428Z,3.70
2019-03-12T02:10:06.596Z,3.70
2019-03-12T02:15:15.699Z,3.70
2019-03-12T02:17:45.036Z,3.70
2019-03-12T02:23:04.323Z,3.70
2019-03-12T02:25:36.804Z,3.70
2019-03-12T02:30:50.005Z,3.70
2019-03-12T02:33:19.446Z,3.70
2019-03-12T02:35:49.935Z,3.60
2019-03-12T02:38:20.869Z,3.60
2019-03-12T02:40:51.052Z,3.60
2019-03-12T02:43:20.570Z,3.60
2019-03-12T02:45:50.120Z,3.60
2019-03-12T02:48:19.544Z,3.50
2019-03-12T02:50:49.115Z,3.50
2019-03-12T02:53:18.505Z,3.50
2019-03-12T02:55:47.791Z,3.40
2019-03-12T02:58:17.221Z,3.40
2019-03-12T03:00:46.683Z,3.30
2019-03-12T03:03:17.130Z,3.20
2019-03-12T03:05:47.124Z,3.20
2019-03-12T03:08:18.706Z,3.10
2019-03-12T03:13:25.288Z,3.00
2019-03-12T03:15:55.896Z,3.00
2019-03-12T03:18:27.210Z,3.00
2019-03-12T03:20:57.983Z,3.00
2019-03-12T03:23:28.825Z,3.00
2019-03-12T03:25:59.636Z,3.00
2019-03-12T03:28:30.175Z,3.00
2019-03-12T03:31:00.975Z,3.00
2019-03-12T03:36:50.924Z,2.90
2019-03-12T03:42:11.835Z,2.80
2019-03-12T03:47:19.797Z,2.80
2019-03-12T03:49:50.659Z,2.70
2019-03-12T03:52:21.669Z,2.70
2019-03-12T04:04:45.658Z,2.60
2019-03-12T04:07:16.182Z,2.60
2019-03-12T04:13:05.987Z,2.60
2019-03-12T04:15:38.903Z,2.60
2019-03-12T04:28:20.168Z,2.60
2019-03-12T04:30:49.211Z,2.60
2019-03-12T04:33:53.624Z,2.50
2019-03-12T04:36:22.692Z,2.60
2019-03-12T04:38:51.630Z,2.50
2019-03-12T04:41:20.575Z,2.50
2019-03-12T04:43:49.674Z,2.50
2019-03-12T04:46:18.601Z,2.50
2019-03-12T04:48:47.500Z,2.40
2019-03-12T04:51:16.404Z,2.40
2019-03-12T04:53:45.380Z,2.40
2019-03-12T04:56:14.281Z,2.40
2019-03-12T04:58:43.226Z,2.40
2019-03-12T05:01:12.176Z,2.40
2019-03-12T05:03:41.220Z,2.40
2019-03-12T05:06:10.141Z,2.30
2019-03-12T05:08:39.051Z,2.30
2019-03-12T05:11:08.029Z,2.30
2019-03-12T05:13:37.033Z,2.30
2019-03-12T05:16:06.064Z,2.20
2019-03-12T05:18:35.101Z,2.20
2019-03-12T05:21:04.073Z,2.30
2019-03-12T05:23:33.043Z,2.30
2019-03-12T05:26:01.973Z,2.30
2019-03-12T05:28:30.996Z,2.30
2019-03-12T05:30:59.917Z,2.30
2019-03-12T05:33:28.867Z,2.30
2019-03-12T05:35:57.765Z,2.30
2019-03-12T05:38:26.782Z,2.30
2019-03-12T05:40:55.701Z,2.30
2019-03-12T05:43:24.747Z,2.30
2019-03-12T05:45:53.789Z,2.30
2019-03-12T05:48:22.812Z,2.30
2019-03-12T05:50:51.800Z,2.40
2019-03-12T05:53:21.091Z,2.40
2019-03-12T05:55:50.031Z,2.50
2019-03-12T05:58:19.103Z,2.40
2019-03-12T06:00:48.200Z,2.50
2019-03-12T06:03:17.192Z,2.50
2019-03-12T06:05:46.261Z,2.50
2019-03-12T06:08:15.397Z,2.50
2019-03-12T06:10:44.411Z,2.60
2019-03-12T06:13:13.385Z,2.60
2019-03-12T06:15:42.359Z,2.70
2019-03-12T06:18:11.351Z,2.80
2019-03-12T06:20:40.344Z,2.80
2019-03-12T06:23:09.266Z,2.70
2019-03-12T06:25:38.333Z,2.70
2019-03-12T06:28:07.259Z,2.70
2019-03-12T06:30:45.037Z,2.70
2019-03-12T06:33:19.489Z,2.70
2019-03-12T06:35:58.549Z,2.70
2019-03-12T06:38:47.760Z,2.80
2019-03-12T06:41:30.008Z,2.80
2019-03-12T06:44:25.035Z,2.80
2019-03-12T06:47:21.963Z,2.80
2019-03-12T06:49:59.127Z,2.80
2019-03-12T06:52:45.635Z,2.80
2019-03-12T06:55:36.562Z,2.80
2019-03-12T06:58:37.976Z,2.90
2019-03-12T07:01:12.856Z,2.90
2019-03-12T07:03:58.627Z,3.00
2019-03-12T07:06:47.024Z,3.00
2019-03-12T07:09:37.903Z,3.10
2019-03-12T07:12:21.095Z,3.40
2019-03-12T07:14:57.449Z,3.90
2019-03-12T07:17:45.496Z,4.10
2019-03-12T07:20:38.147Z,4.00
2019-03-12T07:23:26.243Z,4.00
2019-03-12T07:26:15.747Z,4.00
2019-03-12T07:29:15.637Z,4.00
2019-03-12T07:31:52.068Z,4.00
2019-03-12T07:34:42.892Z,4.00
2019-03-12T07:37:20.342Z,4.00
2019-03-12T07:39:58.822Z,4.00
2019-03-12T07:42:46.279Z,4.00
2019-03-12T07:45:42.213Z,4.10
2019-03-12T07:48:47.661Z,4.10
2019-03-12T07:51:33.770Z,4.20
2019-03-12T07:54:11.046Z,4.30
2019-03-12T07:56:58.212Z,4.50
2019-03-12T07:59:41.563Z,4.60
2019-03-12T08:02:28.474Z,4.80
2019-03-12T08:05:19.970Z,5.00
2019-03-12T08:08:23.130Z,5.10
2019-03-12T08:11:06.445Z,5.30
2019-03-12T08:13:45.424Z,5.40
2019-03-12T08:16:31.827Z,5.50
2019-03-12T08:19:19.897Z,5.50
2019-03-12T08:22:08.839Z,5.70
2019-03-12T08:24:44.671Z,5.80
2019-03-12T08:27:29.519Z,5.80
2019-03-12T08:30:07.518Z,5.80
2019-03-12T08:33:04.610Z,5.70
2019-03-12T08:35:42.891Z,5.80
2019-03-12T08:38:27.023Z,5.70
2019-03-12T08:41:16.898Z,5.80
2019-03-12T08:43:54.676Z,5.80
2019-03-12T08:46:37.566Z,5.90
2019-03-12T08:49:26.147Z,5.90
2019-03-12T08:52:04.999Z,5.90
2019-03-12T08:54:58.735Z,6.00
2019-03-12T08:57:45.425Z,6.10
2019-03-12T09:00:24.592Z,6.10
2019-03-12T09:03:11.272Z,6.20
2019-03-12T09:05:46.454Z,6.30
2019-03-12T09:08:33.136Z,6.40
2019-03-12T09:11:10.575Z,6.50
2019-03-12T09:13:47.974Z,6.60
2019-03-12T09:16:36.983Z,6.60
2019-03-12T09:19:20.575Z,6.70
2019-03-12T09:22:17.764Z,6.70
2019-03-12T09:24:56.818Z,6.70
2019-03-12T09:27:47.410Z,6.70
2019-03-12T09:30:34.731Z,6.70
2019-03-12T09:33:24.499Z,6.70
2019-03-12T09:36:03.107Z,6.80
2019-03-12T09:38:56.176Z,6.80
2019-03-12T09:41:44.284Z,6.80
2019-03-12T09:44:30.951Z,6.90
2019-03-12T09:47:08.651Z,7.00
2019-03-12T09:49:52.380Z,7.00
2019-03-12T09:52:43.246Z,7.00
2019-03-12T09:55:34.219Z,7.00
2019-03-12T09:58:20.698Z,6.90
2019-03-12T10:00:56.347Z,7.00
2019-03-12T10:03:37.395Z,7.00
2019-03-12T10:06:20.833Z,7.10
2019-03-12T10:09:07.379Z,7.00
2019-03-12T10:11:58.528Z,6.90
2019-03-12T10:14:35.011Z,7.00
2019-03-12T10:17:32.265Z,6.90
2019-03-12T10:20:13.062Z,6.90
2019-03-12T10:22:46.744Z,6.80
2019-03-12T10:25:50.071Z,6.70
2019-03-12T10:28:36.663Z,6.60
2019-03-12T10:31:36.906Z,6.60
2019-03-12T10:34:29.981Z,6.60
2019-03-12T10:37:16.576Z,6.60
2019-03-12T10:40:14.760Z,6.70
2019-03-12T10:43:01.569Z,6.70
2019-03-12T10:45:44.579Z,6.80
2019-03-12T10:48:13.854Z,6.90
2019-03-12T10:50:42.818Z,6.90
2019-03-12T10:53:11.712Z,7.10
2019-03-12T10:55:40.566Z,7.20
2019-03-12T10:58:09.401Z,7.10
2019-03-12T11:00:39.173Z,7.30
2019-03-12T11:03:08.252Z,7.30
2019-03-12T11:05:45.933Z,7.30
2019-03-12T11:08:07.736Z,7.40
2019-03-12T11:10:36.573Z,7.40
2019-03-12T11:13:05.603Z,7.50
2019-03-12T11:15:34.683Z,7.50
2019-03-12T11:18:03.631Z,7.50
2019-03-12T11:20:32.550Z,7.50
2019-03-12T11:23:01.438Z,7.50
2019-03-12T11:25:30.286Z,7.50
2019-03-12T11:27:59.227Z,7.50
2019-03-12T11:30:28.147Z,7.60
2019-03-12T11:32:56.969Z,7.60
2019-03-12T11:35:25.974Z,7.60
2019-03-12T11:37:54.905Z,7.60
2019-03-12T11:40:24.150Z,7.60
2019-03-12T11:42:53.214Z,7.70
2019-03-12T11:45:34.791Z,7.70
2019-03-12T11:47:52.739Z,7.80
2019-03-12T11:50:22.084Z,7.90
2019-03-12T11:52:55.607Z,7.80
2019-03-12T11:55:22.826Z,7.90
2019-03-12T11:57:51.978Z,7.90
2019-03-12T12:00:28.116Z,7.90
2019-03-12T12:03:00.245Z,7.90
2019-03-12T12:05:28.224Z,7.80
2019-03-12T12:07:57.278Z,7.80
2019-03-12T12:10:26.303Z,7.80
2019-03-12T12:12:55.344Z,7.90
2019-03-12T12:15:24.331Z,7.90
2019-03-12T12:17:53.271Z,7.90
2019-03-12T12:20:29.720Z,7.90
2019-03-12T12:22:52.755Z,7.90
2019-03-12T12:25:31.340Z,7.90
2019-03-12T12:28:00.157Z,8.00
2019-03-12T12:30:29.075Z,8.00
2019-03-12T12:32:58.059Z,8.10
2019-03-12T12:35:26.958Z,8.00
2019-03-12T12:37:55.877Z,8.00
2019-03-12T12:40:24.844Z,8.00
2019-03-12T12:42:53.852Z,8.00
2019-03-12T12:45:23.887Z,8.00
2019-03-12T12:47:52.719Z,8.00
2019-03-12T12:50:21.710Z,8.00
2019-03-12T12:52:50.551Z,8.00
2019-03-12T12:55:19.460Z,7.90
2019-03-12T12:57:48.463Z,7.90
2019-03-12T13:00:18.888Z,7.90
2019-03-12T13:02:47.848Z,8.00
2019-03-12T13:05:16.844Z,8.00
2019-03-12T13:07:45.835Z,8.10
2019-03-12T13:10:17.719Z,8.10
2019-03-12T13:12:46.645Z,8.10
2019-03-12T13:15:15.663Z,8.00
2019-03-12T13:17:44.825Z,8.00
2019-03-12T13:20:14.347Z,8.00
2019-03-12T13:22:43.267Z,8.00
2019-03-12T13:25:12.406Z,8.00
2019-03-12T13:27:42.729Z,8.00
2019-03-12T13:30:14.562Z,8.00
2019-03-12T13:32:43.533Z,8.10
2019-03-12T13:35:13.376Z,8.10
2019-03-12T13:37:42.295Z,8.10
2019-03-12T13:40:12.497Z,8.20
2019-03-12T13:42:41.808Z,8.10
2019-03-12T13:45:12.086Z,8.10
2019-03-12T13:47:41.093Z,8.00
2019-03-12T13:50:10.364Z,8.00
2019-03-12T13:52:39.358Z,8.00
2019-03-12T13:55:08.859Z,8.00
2019-03-12T13:57:37.839Z,8.00
2019-03-12T14:00:09.867Z,8.00
2019-03-12T14:02:38.680Z,8.10
2019-03-12T14:05:08.111Z,8.10
2019-03-12T14:07:37.029Z,8.10
2019-03-12T14:10:06.876Z,8.10
2019-03-12T14:12:35.768Z,8.10
2019-03-12T14:15:05.676Z,8.10
2019-03-12T14:17:34.510Z,8.10
2019-03-12T14:20:27.224Z,8.20
2019-03-12T14:22:56.274Z,8.20
2019-03-12T14:25:25.215Z,8.30
2019-03-12T14:27:54.031Z,8.30
2019-03-12T14:30:22.962Z,8.30
2019-03-12T14:32:51.772Z,8.40
2019-03-12T14:35:20.687Z,8.40
2019-03-12T14:37:49.595Z,8.30
2019-03-12T14:40:18.579Z,8.30
2019-03-12T14:42:47.488Z,8.30
2019-03-12T14:45:24.802Z,8.40
2019-03-12T14:47:53.734Z,8.40
2019-03-12T14:50:23.006Z,8.40
2019-03-12T14:52:55.198Z,8.40
2019-03-12T14:55:24.207Z,8.40
2019-03-12T14:57:53.011Z,8.40
2019-03-12T15:00:23.019Z,8.40
2019-03-12T15:02:52.291Z,8.40
2019-03-12T15:05:21.420Z,8.40
2019-03-12T15:07:50.351Z,8.40
2019-03-12T15:10:19.362Z,8.40
2019-03-12T15:12:48.339Z,8.50
2019-03-12T15:15:17.155Z,8.50
2019-03-12T15:17:46.115Z,8.60
2019-03-12T15:20:15.239Z,8.60
2019-03-12T15:22:44.278Z,8.60
2019-03-12T15:25:13.454Z,8.60
2019-03-12T15:27:42.552Z,8.60
2019-03-12T15:30:14.135Z,8.50
2019-03-12T15:32:42.989Z,8.60
2019-03-12T15:35:11.876Z,8.60
2019-03-12T15:37:40.980Z,8.60
2019-03-12T15:40:10.330Z,8.60
2019-03-12T15:42:39.351Z,8.60
2019-03-12T15:45:08.811Z,8.60
2019-03-12T15:47:38.815Z,8.60
2019-03-12T15:50:09.828Z,8.60
2019-03-12T15:52:38.947Z,8.50
2019-03-12T15:55:08.458Z,8.60
2019-03-12T15:57:37.439Z,8.50
2019-03-12T16:00:06.648Z,8.50
2019-03-12T16:02:36.069Z,8.50
2019-03-12T16:05:05.575Z,8.50
2019-03-12T16:07:34.438Z,8.40
2019-03-12T16:10:03.388Z,8.40
2019-03-12T16:12:32.291Z,8.50
2019-03-12T16:15:01.192Z,8.40
2019-03-12T16:17:30.312Z,8.30
2019-03-12T16:19:59.225Z,8.30
2019-03-12T16:22:28.151Z,8.30
2019-03-12T16:24:56.996Z,8.30
2019-03-12T16:27:25.820Z,8.30
2019-03-12T16:29:54.636Z,8.20
2019-03-12T16:32:23.587Z,8.30
2019-03-12T16:34:52.395Z,8.20
2019-03-12T16:37:25.434Z,8.30
2019-03-12T16:39:54.303Z,8.10
2019-03-12T16:42:34.596Z,8.10
2019-03-12T16:44:53.776Z,8.10
2019-03-12T16:47:22.744Z,8.00
2019-03-12T16:49:51.647Z,7.90
2019-03-12T16:52:20.550Z,7.90
2019-03-12T16:54:51.462Z,7.90
2019-03-12T16:57:20.097Z,7.80
2019-03-12T16:59:49.034Z,7.80
2019-03-12T17:02:17.950Z,7.90
2019-03-12T17:04:46.970Z,7.80
2019-03-12T17:07:17.219Z,7.80
2019-03-12T17:09:47.917Z,7.80
2019-03-12T17:12:18.630Z,7.70
2019-03-12T17:14:49.768Z,7.80
2019-03-12T17:17:20.946Z,7.70
2019-03-12T17:19:51.724Z,7.70
2019-03-12T17:22:22.322Z,7.70
2019-03-12T17:24:52.733Z,7.70
2019-03-12T17:27:23.216Z,7.70
2019-03-12T17:29:53.610Z,7.60
2019-03-12T17:32:23.682Z,7.50
2019-03-12T17:34:54.774Z,7.60
2019-03-12T17:37:25.678Z,7.60
2019-03-12T17:39:56.341Z,7.50
2019-03-12T17:42:26.245Z,7.60
2019-03-12T17:44:57.270Z,7.60
2019-03-12T17:47:27.458Z,7.60
2019-03-12T17:49:58.215Z,7.50
2019-03-12T17:52:28.658Z,7.50
2019-03-12T17:54:58.990Z,7.50
2019-03-12T17:57:29.523Z,7.50
2019-03-12T18:00:00.453Z,7.50
2019-03-12T18:02:42.074Z,7.50
2019-03-12T18:05:03.853Z,7.60
2019-03-12T18:07:34.665Z,7.60
2019-03-12T18:10:06.061Z,7.60
2019-03-12T18:12:36.702Z,7.60
2019-03-12T18:15:07.590Z,7.60
2019-03-12T18:17:37.876Z,7.50
2019-03-12T18:20:10.477Z,7.50
2019-03-12T18:22:41.331Z,7.70
2019-03-12T18:25:17.812Z,7.70
2019-03-12T18:27:50.181Z,7.60
2019-03-12T18:30:20.980Z,7.60
2019-03-12T18:32:50.778Z,7.60
2019-03-12T18:35:21.688Z,7.60
2019-03-12T18:37:52.514Z,7.60
2019-03-12T18:40:23.311Z,7.70
2019-03-12T18:42:54.047Z,7.60
2019-03-12T18:45:25.997Z,7.70
2019-03-12T18:47:56.838Z,7.60
2019-03-12T18:50:27.797Z,7.70
2019-03-12T18:52:56.832Z,7.60
2019-03-12T18:55:48.179Z,7.60
2019-03-12T18:58:20.263Z,7.60
2019-03-12T19:00:52.281Z,7.60
2019-03-12T19:03:23.463Z,7.70
2019-03-12T19:05:54.254Z,7.80
2019-03-12T19:08:25.086Z,7.80
2019-03-12T19:10:55.905Z,7.80
2019-03-12T19:13:26.748Z,7.80
2019-03-12T19:15:58.135Z,7.80
2019-03-12T19:18:29.393Z,7.70
2019-03-12T19:21:00.632Z,7.70
2019-03-12T19:23:32.542Z,7.70
2019-03-12T19:26:03.797Z,7.70
2019-03-12T19:28:35.045Z,7.80
2019-03-12T19:31:17.977Z,7.80
2019-03-12T19:33:49.524Z,7.80
2019-03-12T19:36:20.429Z,7.80
2019-03-12T19:38:51.351Z,7.80
2019-03-12T19:41:22.155Z,7.80
2019-03-12T19:43:52.873Z,7.70
2019-03-12T19:46:21.819Z,7.90
2019-03-12T19:48:50.791Z,7.90
2019-03-12T19:51:19.731Z,7.90
2019-03-12T19:53:49.083Z,7.90
2019-03-12T19:56:17.946Z,7.90
2019-03-12T19:58:46.762Z,7.90
2019-03-12T20:01:15.774Z,8.00
2019-03-12T20:03:44.822Z,8.10
2019-03-12T20:06:13.771Z,8.10
2019-03-12T20:08:42.729Z,8.10
2019-03-12T20:11:54.777Z,8.10
2019-03-12T20:15:09.957Z,8.20
2019-03-12T20:18:24.555Z,8.40
2019-03-12T20:21:27.841Z,8.20
2019-03-12T20:24:28.486Z,8.20
2019-03-12T20:27:34.990Z,8.30
2019-03-12T20:30:42.808Z,8.30
2019-03-12T20:33:27.195Z,8.40
2019-03-12T20:36:42.125Z,8.30
2019-03-12T20:39:56.741Z,8.40
2019-03-12T20:43:02.292Z,8.20
2019-03-12T20:46:09.197Z,8.20
2019-03-12T20:49:10.741Z,8.20
2019-03-12T20:52:16.210Z,8.20
2019-03-12T20:55:24.219Z,8.30
2019-03-12T20:58:35.985Z,8.40
2019-03-12T21:02:05.144Z,8.40
2019-03-12T21:05:16.802Z,8.40
2019-03-12T21:08:31.619Z,8.50
2019-03-12T21:11:51.967Z,8.60
2019-03-12T21:15:00.931Z,8.70
2019-03-12T21:18:02.895Z,8.60
2019-03-12T21:20:58.442Z,8.50
2019-03-12T21:23:47.491Z,8.50
2019-03-12T21:26:50.699Z,8.60
2019-03-12T21:29:42.283Z,8.60
2019-03-12T21:32:11.860Z,8.70
2019-03-12T21:34:40.879Z,8.70
2019-03-12T21:37:09.934Z,8.80
2019-03-12T21:39:38.775Z,8.90
2019-03-12T21:42:08.261Z,8.90
2019-03-12T21:44:37.364Z,8.90
2019-03-12T21:47:06.548Z,8.90
2019-03-12T21:49:35.511Z,8.80
2019-03-12T21:52:04.762Z,8.70
2019-03-12T21:54:33.817Z,8.60
2019-03-12T21:57:02.651Z,8.50
2019-03-12T21:59:31.624Z,8.40
2019-03-12T22:02:00.502Z,8.20
2019-03-12T22:04:29.565Z,8.20
2019-03-12T22:06:58.532Z,8.20
2019-03-12T22:09:27.385Z,8.00
2019-03-12T22:11:56.304Z,8.00
2019-03-12T22:14:25.176Z,7.90
2019-03-12T22:16:57.023Z,7.90
2019-03-12T22:19:25.895Z,7.80
2019-03-12T22:22:13.819Z,7.80
2019-03-12T22:24:42.795Z,7.70
2019-03-12T22:27:11.615Z,7.70
2019-03-12T22:29:40.454Z,7.90
2019-03-12T22:32:09.277Z,7.90
2019-03-12T22:34:38.122Z,7.90
2019-03-12T22:37:07.080Z,8.00
2019-03-12T22:39:35.971Z,8.00
2019-03-12T22:42:04.886Z,8.00
2019-03-12T22:44:33.719Z,8.00
2019-03-12T22:47:02.607Z,8.10
2019-03-12T22:49:31.451Z,8.10
2019-03-12T22:52:00.281Z,8.00
2019-03-12T22:54:29.254Z,8.00
2019-03-12T22:56:58.498Z,8.00
2019-03-12T22:59:27.322Z,7.80
2019-03-12T23:01:56.265Z,7.60
2019-03-12T23:04:25.347Z,7.20
2019-03-12T23:06:54.194Z,6.70
2019-03-12T23:09:23.143Z,6.50
2019-03-12T23:11:52.202Z,6.20
2019-03-12T23:14:21.296Z,5.90
2019-03-12T23:16:50.307Z,5.70
2019-03-12T23:19:19.408Z,5.60
2019-03-12T23:21:48.423Z,5.50
2019-03-12T23:24:17.388Z,5.40
2019-03-12T23:26:46.348Z,5.40
2019-03-12T23:29:15.268Z,5.30
2019-03-12T23:31:44.447Z,5.30
2019-03-12T23:34:13.404Z,5.20
2019-03-12T23:36:42.323Z,5.20
2019-03-12T23:39:11.225Z,5.20
2019-03-12T23:41:40.188Z,5.10
2019-03-12T23:44:09.275Z,5.00
2019-03-12T23:46:38.264Z,5.10
2019-03-12T23:49:07.291Z,5.10
2019-03-12T23:51:36.222Z,5.00
2019-03-12T23:54:05.215Z,5.00
2019-03-12T23:56:34.158Z,5.00
2019-03-12T23:59:03.239Z,5.00
